createdAt,value
2022-11-05T00:02:53.738Z,98.10
2022-11-05T00:06:13.921Z,97.40
2022-11-05T00:09:31.030Z,97.60
2022-11-05T00:12:51.675Z,97.70
2022-11-05T00:16:12.255Z,97.70
2022-11-05T00:19:14.833Z,97.40
2022-11-05T00:22:34.935Z,98.40
2022-11-05T00:25:36.460Z,97.60
2022-11-05T00:28:43.702Z,98.20
2022-11-05T00:31:45.244Z,97.40
2022-11-05T00:34:46.770Z,98.30
2022-11-05T00:37:50.219Z,98.30
2022-11-05T00:40:52.294Z,98.30
2022-11-05T00:44:12.866Z,98.30
2022-11-05T00:47:32.904Z,97.60
2022-11-05T00:50:34.735Z,99.90
2022-11-05T00:53:36.315Z,98.30
2022-11-05T00:56:37.845Z,98.50
2022-11-05T00:59:39.393Z,98.30
2022-11-05T01:02:41.054Z,98.40
2022-11-05T01:05:46.363Z,98.40
2022-11-05T01:08:47.964Z,98.40
2022-11-05T01:11:51.233Z,98.50
2022-11-05T01:14:52.820Z,98.40
2022-11-05T01:17:54.352Z,98.60
2022-11-05T01:20:56.016Z,98.40
2022-11-05T01:23:57.625Z,98.20
2022-11-05T01:26:59.261Z,98.50
2022-11-05T01:30:00.824Z,98.30
2022-11-05T01:33:03.420Z,98.50
2022-11-05T01:36:05.451Z,98.60
2022-11-05T01:39:07.012Z,98.50
2022-11-05T01:42:20.223Z,98.60
2022-11-05T01:45:27.349Z,98.80
2022-11-05T01:48:33.850Z,99.00
2022-11-05T01:51:39.568Z,98.80
2022-11-05T01:54:41.191Z,98.80
2022-11-05T01:57:42.816Z,98.60
2022-11-05T02:00:44.553Z,98.60
2022-11-05T02:03:48.907Z,98.50
2022-11-05T02:06:50.626Z,98.70
2022-11-05T02:10:02.496Z,98.60
2022-11-05T02:13:04.049Z,98.00
2022-11-05T02:16:34.438Z,98.60
2022-11-05T02:24:11.201Z,98.00
2022-11-05T02:27:53.793Z,98.10
2022-11-05T02:31:22.826Z,98.00
2022-11-05T02:34:56.802Z,98.10
2022-11-05T02:38:07.594Z,98.10
2022-11-05T02:41:11.872Z,98.70
2022-11-05T02:44:22.198Z,97.80
2022-11-05T02:47:32.869Z,97.70
2022-11-05T02:50:37.520Z,98.00
2022-11-05T02:53:46.976Z,98.70
2022-11-05T02:56:51.599Z,98.00
2022-11-05T03:00:46.799Z,98.70
2022-11-05T03:04:00.936Z,98.10
2022-11-05T03:07:14.123Z,98.00
2022-11-05T03:10:31.493Z,98.20
2022-11-05T03:13:45.019Z,98.20
2022-11-05T03:16:55.002Z,99.00
2022-11-05T03:20:08.583Z,98.70
2022-11-05T03:23:17.435Z,98.50
2022-11-05T03:26:23.707Z,98.90
2022-11-05T03:29:32.261Z,98.80
2022-11-05T03:32:37.179Z,98.90
2022-11-05T03:35:44.976Z,98.70
2022-11-05T03:38:49.889Z,98.80
2022-11-05T03:41:53.606Z,99.00
2022-11-05T03:45:00.150Z,98.80
2022-11-05T03:48:04.323Z,98.90
2022-11-05T03:51:16.560Z,98.90
2022-11-05T03:54:18.189Z,99.00
2022-11-05T03:57:31.247Z,99.00
2022-11-05T04:00:33.354Z,99.90
2022-11-05T04:03:36.590Z,98.90
2022-11-05T04:06:56.902Z,98.90
2022-11-05T04:10:17.726Z,98.30
2022-11-05T04:13:25.049Z,98.90
2022-11-05T04:16:45.135Z,98.20
2022-11-05T04:20:05.494Z,98.20
2022-11-05T04:23:25.746Z,98.20
2022-11-05T04:26:27.313Z,98.20
2022-11-05T04:29:47.346Z,98.80
2022-11-05T04:33:13.706Z,98.20
2022-11-05T04:36:16.735Z,99.00
2022-11-05T04:39:19.372Z,99.00
2022-11-05T04:42:20.972Z,98.90
2022-11-05T04:45:24.311Z,98.90
2022-11-05T04:48:25.873Z,99.00
2022-11-05T04:51:27.477Z,99.10
2022-11-05T04:54:29.079Z,98.80
2022-11-05T04:57:30.707Z,99.90
2022-11-05T05:00:32.294Z,98.90
2022-11-05T05:03:33.955Z,98.90
2022-11-05T05:06:35.653Z,99.00
2022-11-05T05:09:37.259Z,99.00
2022-11-05T05:12:38.975Z,99.20
2022-11-05T05:15:40.525Z,99.00
2022-11-05T05:18:46.561Z,99.00
2022-11-05T05:21:48.259Z,98.80
2022-11-05T05:24:52.718Z,99.00
2022-11-05T05:27:57.756Z,99.00
2022-11-05T05:31:00.628Z,99.00
2022-11-05T05:34:05.503Z,98.90
2022-11-05T05:37:07.231Z,99.70
2022-11-05T05:40:09.807Z,99.00
2022-11-05T05:43:11.867Z,98.90
2022-11-05T05:46:18.526Z,99.00
2022-11-05T05:49:20.063Z,98.40
2022-11-05T05:52:21.705Z,99.10
2022-11-05T05:55:23.287Z,99.10
2022-11-05T05:58:31.418Z,99.20
2022-11-05T06:01:33.116Z,99.10
2022-11-05T06:04:34.783Z,99.10
2022-11-05T06:07:37.588Z,99.20
2022-11-05T06:10:42.581Z,99.10
2022-11-05T06:13:44.305Z,99.90
2022-11-05T06:16:45.916Z,99.20
2022-11-05T06:19:47.856Z,99.30
2022-11-05T06:22:57.058Z,99.20
2022-11-05T06:26:06.583Z,99.30
2022-11-05T06:29:09.635Z,99.30
2022-11-05T06:32:11.177Z,99.20
2022-11-05T06:35:12.937Z,99.30
2022-11-05T06:38:14.554Z,99.20
2022-11-05T06:41:16.143Z,99.20
2022-11-05T06:44:17.682Z,99.20
2022-11-05T06:47:20.067Z,99.20
2022-11-05T06:50:21.613Z,99.20
2022-11-05T06:53:23.483Z,99.30
2022-11-05T06:56:25.134Z,99.20
2022-11-05T06:59:26.852Z,99.10
2022-11-05T07:02:28.404Z,99.20
2022-11-05T07:05:30.844Z,99.20
2022-11-05T07:08:36.469Z,99.20
2022-11-05T07:11:38.030Z,98.40
2022-11-05T07:14:39.560Z,99.00
2022-11-05T07:17:41.130Z,99.20
2022-11-05T07:20:42.704Z,99.20
2022-11-05T07:23:44.248Z,99.10
2022-11-05T07:26:45.774Z,99.20
2022-11-05T07:29:47.369Z,99.80
2022-11-05T07:32:48.930Z,99.30
2022-11-05T07:35:50.473Z,99.70
2022-11-05T07:38:54.923Z,99.10
2022-11-05T07:42:00.622Z,99.10
2022-11-05T07:45:02.206Z,99.10
2022-11-05T07:48:04.901Z,99.20
2022-11-05T07:51:06.544Z,99.20
2022-11-05T07:54:08.146Z,99.20
2022-11-05T07:57:09.671Z,98.90
2022-11-05T08:00:14.111Z,99.00
2022-11-05T08:03:17.966Z,99.00
2022-11-05T08:06:20.117Z,99.20
2022-11-05T08:09:21.664Z,99.10
2022-11-05T08:12:23.487Z,99.10
2022-11-05T08:15:25.367Z,98.90
2022-11-05T08:18:31.325Z,99.00
2022-11-05T08:21:32.874Z,99.00
2022-11-05T08:24:34.436Z,99.00
2022-11-05T08:27:36.033Z,99.10
2022-11-05T08:30:37.613Z,98.90
2022-11-05T08:33:39.115Z,98.90
2022-11-05T08:36:43.176Z,98.90
2022-11-05T08:39:44.756Z,98.90
2022-11-05T08:42:46.330Z,98.70
2022-11-05T08:45:48.082Z,98.80
2022-11-05T08:48:49.929Z,98.70
2022-11-05T08:51:51.492Z,98.70
2022-11-05T08:54:53.054Z,98.60
2022-11-05T08:57:59.663Z,98.60
2022-11-05T09:01:05.386Z,98.70
2022-11-05T09:04:07.327Z,98.60
2022-11-05T09:07:08.994Z,98.50
2022-11-05T09:10:10.880Z,98.40
2022-11-05T09:13:18.407Z,98.40
2022-11-05T09:16:24.991Z,98.40
2022-11-05T09:19:26.587Z,98.20
2022-11-05T09:22:28.139Z,98.30
2022-11-05T09:25:29.724Z,98.30
2022-11-05T09:28:34.146Z,98.10
2022-11-05T09:31:35.701Z,98.10
2022-11-05T09:34:37.620Z,98.00
2022-11-05T09:37:39.178Z,98.00
2022-11-05T09:40:55.556Z,98.20
2022-11-05T09:44:05.238Z,97.20
2022-11-05T09:47:14.608Z,97.80
2022-11-05T09:50:30.339Z,97.80
2022-11-05T09:53:32.038Z,97.70
2022-11-05T09:56:37.137Z,97.60
2022-11-05T09:59:58.377Z,97.50
2022-11-05T10:03:06.767Z,97.00
2022-11-05T10:06:10.948Z,97.50
2022-11-05T10:09:26.504Z,97.50
2022-11-05T10:12:34.166Z,97.30
2022-11-05T10:15:40.412Z,96.60
2022-11-05T10:18:47.355Z,97.30
2022-11-05T10:22:05.965Z,97.50
2022-11-05T10:25:21.885Z,97.00
2022-11-05T10:28:29.820Z,97.10
2022-11-05T10:31:37.003Z,96.30
2022-11-05T10:34:39.512Z,96.90
2022-11-05T10:37:41.335Z,96.90
2022-11-05T10:41:01.619Z,96.90
2022-11-05T10:44:24.870Z,96.00
2022-11-05T10:47:40.912Z,95.90
2022-11-05T10:50:44.300Z,96.50
2022-11-05T10:54:01.609Z,96.40
2022-11-05T10:57:28.594Z,95.80
2022-11-05T11:00:30.383Z,95.70
2022-11-05T11:03:48.490Z,96.60
2022-11-05T11:06:53.614Z,96.60
2022-11-05T11:09:55.286Z,96.40
2022-11-05T11:12:57.402Z,96.40
2022-11-05T11:16:19.504Z,96.30
2022-11-05T11:19:21.268Z,96.30
2022-11-05T11:22:22.923Z,96.20
2022-11-05T11:25:26.226Z,96.10
2022-11-05T11:28:39.564Z,96.40
2022-11-05T11:31:41.804Z,95.10
2022-11-05T11:34:46.018Z,95.80
2022-11-05T11:37:48.364Z,95.70
2022-11-05T11:40:51.237Z,95.60
2022-11-05T11:44:01.089Z,95.70
2022-11-05T11:47:09.478Z,95.90
2022-11-05T11:50:35.726Z,95.90
2022-11-05T11:53:37.332Z,95.00
2022-11-05T11:56:46.659Z,95.50
2022-11-05T12:00:07.836Z,95.60
2022-11-05T12:03:38.260Z,95.50
2022-11-05T12:07:02.362Z,94.70
2022-11-05T12:10:28.778Z,94.80
2022-11-05T12:14:04.226Z,94.70
2022-11-05T12:17:20.498Z,94.60
2022-11-05T12:20:43.647Z,94.60
2022-11-05T12:23:57.199Z,94.40
2022-11-05T12:27:32.690Z,94.40
2022-11-05T12:30:59.594Z,94.40
2022-11-05T12:34:04.159Z,94.20
2022-11-05T12:37:24.569Z,94.40
2022-11-05T12:40:41.376Z,95.00
2022-11-05T12:44:19.886Z,95.10
2022-11-05T12:47:24.453Z,94.20
2022-11-05T12:50:52.243Z,94.70
2022-11-05T12:54:35.633Z,94.20
2022-11-05T12:57:40.878Z,94.20
2022-11-05T13:00:45.974Z,94.90
2022-11-05T13:03:59.989Z,94.80
2022-11-05T13:07:06.331Z,94.90
2022-11-05T13:10:25.605Z,94.70
2022-11-05T13:13:41.224Z,94.00
2022-11-05T13:16:50.764Z,94.50
2022-11-05T13:20:17.173Z,93.80
2022-11-05T13:23:31.036Z,94.40
2022-11-05T13:26:52.417Z,93.80
2022-11-05T13:30:01.854Z,93.70
2022-11-05T13:33:11.672Z,94.70
2022-11-05T13:36:57.019Z,94.60
2022-11-05T13:40:02.993Z,93.70
2022-11-05T13:43:29.019Z,94.50
2022-11-05T13:46:49.427Z,94.40
2022-11-05T13:50:15.970Z,93.60
2022-11-05T13:53:48.711Z,93.50
2022-11-05T13:57:19.395Z,93.80
2022-11-05T14:00:26.931Z,93.50
2022-11-05T14:03:29.120Z,94.50
2022-11-05T14:06:36.273Z,94.30
2022-11-05T14:09:39.574Z,94.20
2022-11-05T14:12:46.098Z,94.30
2022-11-05T14:16:07.077Z,94.20
2022-11-05T14:19:20.621Z,94.10
2022-11-05T14:22:31.286Z,94.30
2022-11-05T14:25:35.538Z,94.20
2022-11-05T14:28:37.608Z,94.40
2022-11-05T14:32:07.827Z,94.60
2022-11-05T14:35:17.249Z,93.60
2022-11-05T14:38:20.965Z,94.20
2022-11-05T14:41:23.324Z,94.80
2022-11-05T14:44:26.329Z,94.50
2022-11-05T14:47:36.470Z,94.80
2022-11-05T14:50:41.461Z,93.60
2022-11-05T14:53:43.264Z,94.40
2022-11-05T14:56:55.911Z,94.30
2022-11-05T15:00:00.839Z,94.30
2022-11-05T15:03:31.764Z,95.00
2022-11-05T15:06:36.261Z,93.60
2022-11-05T15:09:51.458Z,94.80
2022-11-05T15:13:03.925Z,94.60
2022-11-05T15:16:07.032Z,94.70
2022-11-05T15:19:29.267Z,94.40
2022-11-05T15:22:45.118Z,94.40
2022-11-05T15:26:15.670Z,94.70
2022-11-05T15:29:24.560Z,93.50
2022-11-05T15:32:27.906Z,94.20
2022-11-05T15:35:30.381Z,94.40
2022-11-05T15:38:34.205Z,94.20
2022-11-05T15:41:35.806Z,94.40
2022-11-05T15:44:42.925Z,94.50
2022-11-05T15:47:46.158Z,94.90
2022-11-05T15:50:47.790Z,94.40
2022-11-05T15:54:23.867Z,94.30
2022-11-05T15:57:25.453Z,94.90
2022-11-05T16:00:29.391Z,93.70
2022-11-05T16:03:33.265Z,94.30
2022-11-05T16:06:38.635Z,94.30
2022-11-05T16:09:43.860Z,94.30
2022-11-05T16:12:45.445Z,94.30
2022-11-05T16:15:54.798Z,94.20
2022-11-05T16:18:56.387Z,94.80
2022-11-05T16:21:57.968Z,94.20
2022-11-05T16:24:59.503Z,94.20
2022-11-05T16:28:01.700Z,94.10
2022-11-05T16:31:05.375Z,94.00
2022-11-05T16:34:07.298Z,93.90
2022-11-05T16:37:13.322Z,94.00
2022-11-05T16:40:18.212Z,93.90
2022-11-05T16:43:23.097Z,93.80
2022-11-05T16:46:28.616Z,94.50
2022-11-05T16:49:30.185Z,93.90
2022-11-05T16:52:31.783Z,94.60
2022-11-05T16:55:36.220Z,94.00
2022-11-05T16:58:37.809Z,93.90
2022-11-05T17:01:42.043Z,93.80
2022-11-05T17:04:43.636Z,93.70
2022-11-05T17:07:45.331Z,93.90
2022-11-05T17:10:46.910Z,93.80
2022-11-05T17:13:48.509Z,93.80
2022-11-05T17:16:50.240Z,93.80
2022-11-05T17:19:51.795Z,93.80
2022-11-05T17:22:53.897Z,93.60
2022-11-05T17:26:05.393Z,93.70
2022-11-05T17:29:06.924Z,93.70
2022-11-05T17:32:08.459Z,93.80
2022-11-05T17:35:10.191Z,93.70
2022-11-05T17:38:12.650Z,93.80
2022-11-05T17:41:22.566Z,93.70
2022-11-05T17:44:24.132Z,93.80
2022-11-05T17:47:26.751Z,93.90
2022-11-05T17:50:28.586Z,93.70
2022-11-05T17:53:30.904Z,93.70
2022-11-05T17:56:34.901Z,93.80
2022-11-05T17:59:37.901Z,93.80
2022-11-05T18:02:39.784Z,93.70
2022-11-05T18:05:42.058Z,93.80
2022-11-05T18:08:43.925Z,93.70
2022-11-05T18:11:45.778Z,93.70
2022-11-05T18:14:47.312Z,93.70
2022-11-05T18:17:48.879Z,93.60
2022-11-05T18:20:50.459Z,93.90
2022-11-05T18:26:54.804Z,92.70
2022-11-05T18:29:56.395Z,93.60
2022-11-05T18:32:58.036Z,94.10
2022-11-05T18:35:59.666Z,94.00
2022-11-05T18:39:03.432Z,93.70
2022-11-05T18:42:05.873Z,93.90
2022-11-05T18:45:08.498Z,93.90
2022-11-05T18:48:10.352Z,93.50
2022-11-05T18:51:14.706Z,94.00
2022-11-05T18:54:16.362Z,93.70
2022-11-05T18:57:17.953Z,93.80
2022-11-05T19:00:20.313Z,93.80
2022-11-05T19:03:21.852Z,93.90
2022-11-05T19:06:27.586Z,93.90
2022-11-05T19:09:29.169Z,93.90
2022-11-05T19:12:31.021Z,93.80
2022-11-05T19:15:32.632Z,94.00
2022-11-05T19:18:34.379Z,94.20
2022-11-05T19:21:36.232Z,93.90
2022-11-05T19:24:40.385Z,94.00
2022-11-05T19:27:43.579Z,94.00
2022-11-05T19:30:45.368Z,93.90
2022-11-05T19:33:48.889Z,93.80
2022-11-05T19:36:50.453Z,94.00
2022-11-05T19:39:52.070Z,94.10
2022-11-05T19:42:53.643Z,94.00
2022-11-05T19:45:55.455Z,94.00
2022-11-05T19:48:57.617Z,94.50
2022-11-05T19:51:59.196Z,94.30
2022-11-05T19:55:00.917Z,94.10
2022-11-05T19:58:02.492Z,94.00
2022-11-05T20:01:04.584Z,94.10
2022-11-05T20:04:06.342Z,94.20
2022-11-05T20:07:08.117Z,94.30
2022-11-05T20:10:09.900Z,94.30
2022-11-05T20:13:17.026Z,94.30
2022-11-05T20:16:22.708Z,94.90
2022-11-05T20:19:24.472Z,94.30
2022-11-05T20:22:26.136Z,94.10
2022-11-05T20:25:27.651Z,94.20
2022-11-05T20:28:29.797Z,94.30
2022-11-05T20:31:31.435Z,94.10
2022-11-05T20:34:35.230Z,94.20
2022-11-05T20:37:36.780Z,94.20
2022-11-05T20:40:39.531Z,94.20
2022-11-05T20:43:41.407Z,94.10
2022-11-05T20:46:42.931Z,94.20
2022-11-05T20:49:44.505Z,94.30
2022-11-05T20:52:46.062Z,94.30
2022-11-05T20:55:48.193Z,94.40
2022-11-05T20:58:50.531Z,94.40
2022-11-05T21:01:52.487Z,94.30
2022-11-05T21:04:54.253Z,94.20
2022-11-05T21:07:56.064Z,94.30
2022-11-05T21:10:57.976Z,94.30
2022-11-05T21:13:59.624Z,94.20
2022-11-05T21:17:01.772Z,94.50
2022-11-05T21:20:06.233Z,94.60
2022-11-05T21:23:10.312Z,94.50
2022-11-05T21:26:13.949Z,94.90
2022-11-05T21:29:16.537Z,94.10
2022-11-05T21:32:18.192Z,94.80
2022-11-05T21:35:19.698Z,94.60
2022-11-05T21:38:22.989Z,94.40
2022-11-05T21:41:24.522Z,94.70
2022-11-05T21:44:26.092Z,94.30
2022-11-05T21:47:29.102Z,94.30
2022-11-05T21:50:49.160Z,94.50
2022-11-05T21:54:09.599Z,93.80
2022-11-05T21:57:38.625Z,93.70
2022-11-05T22:00:40.165Z,94.00
2022-11-05T22:03:41.702Z,95.00
2022-11-05T22:06:45.692Z,94.40
2022-11-05T22:09:47.301Z,94.40
2022-11-05T22:12:51.345Z,94.40
2022-11-05T22:15:56.468Z,94.30
2022-11-05T22:18:58.767Z,94.40
2022-11-05T22:22:00.443Z,94.40
2022-11-05T22:25:02.080Z,94.60
2022-11-05T22:28:04.029Z,94.40
2022-11-05T22:31:15.383Z,94.40
2022-11-05T22:34:18.598Z,94.60
2022-11-05T22:37:20.125Z,94.30
2022-11-05T22:40:24.030Z,94.40
2022-11-05T22:43:25.809Z,94.50
2022-11-05T22:46:27.610Z,94.60
2022-11-05T22:49:29.238Z,94.40
2022-11-05T22:52:32.780Z,94.20
2022-11-05T22:55:39.144Z,95.10
2022-11-05T22:58:41.236Z,94.60
2022-11-05T23:01:44.681Z,94.40
2022-11-05T23:04:46.332Z,94.20
2022-11-05T23:08:06.474Z,94.20
2022-11-05T23:11:38.372Z,93.60
2022-11-05T23:14:39.953Z,93.50
2022-11-05T23:18:00.310Z,94.30
2022-11-05T23:21:23.193Z,93.50
2022-11-05T23:24:24.877Z,93.70
2022-11-05T23:27:37.796Z,94.30
2022-11-05T23:31:03.316Z,94.20
2022-11-05T23:34:04.862Z,94.30
2022-11-05T23:37:25.692Z,94.20
2022-11-05T23:40:51.619Z,93.50
2022-11-05T23:44:13.317Z,94.20
2022-11-05T23:47:33.768Z,94.20
2022-11-05T23:50:39.725Z,93.50
2022-11-05T23:53:41.919Z,94.40
2022-11-05T23:56:43.527Z,94.40
2022-11-05T23:59:45.050Z,94.30
